Terminal Aerodrome Forecast
Issued by NWS

Current Version | Previous Version | Text Only | Print | Product List | Glossary On
Versions: 1 2 3 4 5 6 7 8 9 10 11 12 13 14 15 16 17 18 19
000
FTUS46 KLOX 251124
TAFBUR
TAF
KBUR 251124Z 2512/2612 VRB03KT P6SM SKC
     FM251900 18010KT P6SM SKC
     FM260500 VRB03KT P6SM SKC
     FM260900 VRB03KT P6SM OVC010=

USA.gov is the U.S. government's official web portal to all federal, state and local government web resources and services.